sensor_id;sensor_type;location;lat;lon;timestamp;P1;durP1;ratioP1;P2;durP2;ratioP2
45254;SDS011;30989;52.078;21.014;2023-06-22T00:01:16;22.33;;;15.52;;
45254;SDS011;30989;52.078;21.014;2023-06-22T00:03:42;28.83;;;17.42;;
45254;SDS011;30989;52.078;21.014;2023-06-22T00:06:07;24.50;;;17.10;;
45254;SDS011;30989;52.078;21.014;2023-06-22T00:08:33;26.63;;;16.70;;
45254;SDS011;30989;52.078;21.014;2023-06-22T00:10:58;24.15;;;16.98;;
45254;SDS011;30989;52.078;21.014;2023-06-22T00:13:24;22.17;;;16.67;;
45254;SDS011;30989;52.078;21.014;2023-06-22T00:15:49;23.77;;;17.10;;
45254;SDS011;30989;52.078;21.014;2023-06-22T00:18:15;22.10;;;16.63;;
45254;SDS011;30989;52.078;21.014;2023-06-22T00:20:40;24.33;;;15.52;;
45254;SDS011;30989;52.078;21.014;2023-06-22T00:23:07;22.92;;;17.00;;
45254;SDS011;30989;52.078;21.014;2023-06-22T00:25:33;22.30;;;16.58;;
45254;SDS011;30989;52.078;21.014;2023-06-22T00:28:00;23.95;;;17.20;;
45254;SDS011;30989;52.078;21.014;2023-06-22T00:30:26;25.98;;;16.45;;
45254;SDS011;30989;52.078;21.014;2023-06-22T00:32:51;28.45;;;17.52;;
45254;SDS011;30989;52.078;21.014;2023-06-22T00:35:17;21.70;;;16.10;;
45254;SDS011;30989;52.078;21.014;2023-06-22T00:37:42;31.48;;;17.05;;
45254;SDS011;30989;52.078;21.014;2023-06-22T00:40:11;23.38;;;17.15;;
45254;SDS011;30989;52.078;21.014;2023-06-22T00:42:40;24.98;;;17.38;;
45254;SDS011;30989;52.078;21.014;2023-06-22T00:45:07;22.75;;;16.88;;
45254;SDS011;30989;52.078;21.014;2023-06-22T00:47:36;23.52;;;17.45;;
45254;SDS011;30989;52.078;21.014;2023-06-22T00:50:03;23.05;;;16.92;;
45254;SDS011;30989;52.078;21.014;2023-06-22T00:52:32;26.73;;;17.30;;
45254;SDS011;30989;52.078;21.014;2023-06-22T00:55:00;25.38;;;17.42;;
45254;SDS011;30989;52.078;21.014;2023-06-22T00:57:27;23.25;;;16.73;;
45254;SDS011;30989;52.078;21.014;2023-06-22T00:59:54;23.90;;;16.30;;
45254;SDS011;30989;52.078;21.014;2023-06-22T01:02:20;23.27;;;16.50;;
45254;SDS011;30989;52.078;21.014;2023-06-22T01:04:46;22.30;;;15.55;;
45254;SDS011;30989;52.078;21.014;2023-06-22T01:07:27;23.95;;;16.63;;
45254;SDS011;30989;52.078;21.014;2023-06-22T01:10:11;23.90;;;18.00;;
45254;SDS011;30989;52.078;21.014;2023-06-22T01:12:45;31.33;;;17.90;;
45254;SDS011;30989;52.078;21.014;2023-06-22T01:15:28;22.95;;;16.23;;
45254;SDS011;30989;52.078;21.014;2023-06-22T01:17:57;24.80;;;16.58;;
45254;SDS011;30989;52.078;21.014;2023-06-22T01:20:25;25.73;;;17.33;;
45254;SDS011;30989;52.078;21.014;2023-06-22T01:31:10;41.25;;;18.60;;
45254;SDS011;30989;52.078;21.014;2023-06-22T01:33:39;27.67;;;17.58;;
45254;SDS011;30989;52.078;21.014;2023-06-22T01:36:07;24.98;;;17.63;;
45254;SDS011;30989;52.078;21.014;2023-06-22T01:38:34;28.38;;;19.10;;
45254;SDS011;30989;52.078;21.014;2023-06-22T01:41:02;28.60;;;19.88;;
45254;SDS011;30989;52.078;21.014;2023-06-22T01:43:29;31.10;;;18.40;;
45254;SDS011;30989;52.078;21.014;2023-06-22T01:45:56;27.45;;;16.33;;
45254;SDS011;30989;52.078;21.014;2023-06-22T01:48:23;21.25;;;16.05;;
45254;SDS011;30989;52.078;21.014;2023-06-22T01:50:50;29.15;;;17.67;;
45254;SDS011;30989;52.078;21.014;2023-06-22T01:53:17;23.35;;;15.00;;
45254;SDS011;30989;52.078;21.014;2023-06-22T01:55:44;23.15;;;16.38;;
45254;SDS011;30989;52.078;21.014;2023-06-22T01:58:09;24.45;;;16.55;;
45254;SDS011;30989;52.078;21.014;2023-06-22T02:00:37;21.02;;;14.45;;
45254;SDS011;30989;52.078;21.014;2023-06-22T02:03:11;23.55;;;16.30;;
45254;SDS011;30989;52.078;21.014;2023-06-22T02:05:46;20.23;;;15.10;;
45254;SDS011;30989;52.078;21.014;2023-06-22T02:08:17;23.58;;;16.48;;
45254;SDS011;30989;52.078;21.014;2023-06-22T02:10:46;25.27;;;16.48;;
45254;SDS011;30989;52.078;21.014;2023-06-22T02:13:13;20.70;;;15.57;;
45254;SDS011;30989;52.078;21.014;2023-06-22T02:15:39;26.40;;;16.88;;
45254;SDS011;30989;52.078;21.014;2023-06-22T02:18:05;25.65;;;17.75;;
45254;SDS011;30989;52.078;21.014;2023-06-22T02:20:31;24.92;;;17.05;;
45254;SDS011;30989;52.078;21.014;2023-06-22T02:22:57;24.88;;;16.67;;
45254;SDS011;30989;52.078;21.014;2023-06-22T02:25:23;30.00;;;18.02;;
45254;SDS011;30989;52.078;21.014;2023-06-22T02:27:49;26.67;;;18.77;;
45254;SDS011;30989;52.078;21.014;2023-06-22T02:30:16;28.38;;;17.17;;
45254;SDS011;30989;52.078;21.014;2023-06-22T02:32:41;23.30;;;17.13;;
45254;SDS011;30989;52.078;21.014;2023-06-22T02:35:10;29.05;;;17.75;;
45254;SDS011;30989;52.078;21.014;2023-06-22T02:37:36;25.13;;;18.85;;
45254;SDS011;30989;52.078;21.014;2023-06-22T02:40:09;28.17;;;18.88;;
45254;SDS011;30989;52.078;21.014;2023-06-22T02:42:35;25.65;;;18.27;;
45254;SDS011;30989;52.078;21.014;2023-06-22T02:45:01;30.13;;;19.17;;
45254;SDS011;30989;52.078;21.014;2023-06-22T02:47:27;27.08;;;20.25;;
45254;SDS011;30989;52.078;21.014;2023-06-22T02:49:53;28.73;;;19.05;;
45254;SDS011;30989;52.078;21.014;2023-06-22T02:52:18;29.90;;;20.35;;
45254;SDS011;30989;52.078;21.014;2023-06-22T02:54:44;26.80;;;18.85;;
45254;SDS011;30989;52.078;21.014;2023-06-22T02:57:12;29.55;;;19.70;;
45254;SDS011;30989;52.078;21.014;2023-06-22T02:59:39;29.98;;;20.48;;
45254;SDS011;30989;52.078;21.014;2023-06-22T03:02:09;29.55;;;20.02;;
45254;SDS011;30989;52.078;21.014;2023-06-22T03:04:35;30.60;;;21.65;;
45254;SDS011;30989;52.078;21.014;2023-06-22T03:07:01;32.33;;;22.13;;
45254;SDS011;30989;52.078;21.014;2023-06-22T03:09:28;29.98;;;20.38;;
45254;SDS011;30989;52.078;21.014;2023-06-22T03:11:55;34.33;;;22.67;;
45254;SDS011;30989;52.078;21.014;2023-06-22T03:14:23;34.20;;;23.60;;
45254;SDS011;30989;52.078;21.014;2023-06-22T03:16:50;36.20;;;23.95;;
45254;SDS011;30989;52.078;21.014;2023-06-22T03:19:17;35.88;;;23.25;;
45254;SDS011;30989;52.078;21.014;2023-06-22T03:21:44;47.17;;;27.00;;
45254;SDS011;30989;52.078;21.014;2023-06-22T03:24:10;51.72;;;32.83;;
45254;SDS011;30989;52.078;21.014;2023-06-22T03:26:37;44.00;;;27.67;;
45254;SDS011;30989;52.078;21.014;2023-06-22T03:29:02;38.30;;;24.70;;
45254;SDS011;30989;52.078;21.014;2023-06-22T03:31:29;36.75;;;24.25;;
45254;SDS011;30989;52.078;21.014;2023-06-22T03:33:55;35.33;;;24.20;;
45254;SDS011;30989;52.078;21.014;2023-06-22T03:36:22;39.22;;;25.13;;
45254;SDS011;30989;52.078;21.014;2023-06-22T03:38:48;40.88;;;25.83;;
45254;SDS011;30989;52.078;21.014;2023-06-22T03:41:15;43.70;;;25.05;;
45254;SDS011;30989;52.078;21.014;2023-06-22T03:43:41;41.03;;;25.63;;
45254;SDS011;30989;52.078;21.014;2023-06-22T03:46:07;41.35;;;26.10;;
45254;SDS011;30989;52.078;21.014;2023-06-22T03:48:33;41.10;;;24.63;;
45254;SDS011;30989;52.078;21.014;2023-06-22T03:51:01;40.33;;;24.60;;
45254;SDS011;30989;52.078;21.014;2023-06-22T03:53:28;43.67;;;23.92;;
45254;SDS011;30989;52.078;21.014;2023-06-22T03:55:53;43.28;;;27.50;;
45254;SDS011;30989;52.078;21.014;2023-06-22T03:58:19;39.00;;;24.67;;
45254;SDS011;30989;52.078;21.014;2023-06-22T04:00:52;35.15;;;22.05;;
45254;SDS011;30989;52.078;21.014;2023-06-22T04:03:18;39.88;;;25.45;;
45254;SDS011;30989;52.078;21.014;2023-06-22T04:05:44;37.75;;;23.27;;
45254;SDS011;30989;52.078;21.014;2023-06-22T04:08:10;38.22;;;24.10;;
45254;SDS011;30989;52.078;21.014;2023-06-22T04:10:35;35.80;;;25.73;;
45254;SDS011;30989;52.078;21.014;2023-06-22T04:13:01;38.90;;;24.92;;
45254;SDS011;30989;52.078;21.014;2023-06-22T04:15:27;39.28;;;24.17;;
45254;SDS011;30989;52.078;21.014;2023-06-22T04:17:54;39.90;;;24.08;;
45254;SDS011;30989;52.078;21.014;2023-06-22T04:20:20;42.78;;;24.60;;
45254;SDS011;30989;52.078;21.014;2023-06-22T04:22:45;42.90;;;25.10;;
45254;SDS011;30989;52.078;21.014;2023-06-22T04:25:11;36.38;;;24.30;;
45254;SDS011;30989;52.078;21.014;2023-06-22T04:27:36;31.88;;;21.85;;
45254;SDS011;30989;52.078;21.014;2023-06-22T04:30:07;35.60;;;23.70;;
45254;SDS011;30989;52.078;21.014;2023-06-22T04:32:33;34.58;;;21.25;;
45254;SDS011;30989;52.078;21.014;2023-06-22T04:35:01;39.25;;;25.20;;
45254;SDS011;30989;52.078;21.014;2023-06-22T04:37:29;40.20;;;23.00;;
45254;SDS011;30989;52.078;21.014;2023-06-22T04:39:55;32.92;;;20.85;;
45254;SDS011;30989;52.078;21.014;2023-06-22T04:42:20;38.35;;;23.02;;
45254;SDS011;30989;52.078;21.014;2023-06-22T04:44:46;37.35;;;23.90;;
45254;SDS011;30989;52.078;21.014;2023-06-22T04:47:11;31.65;;;21.10;;
45254;SDS011;30989;52.078;21.014;2023-06-22T04:49:37;32.45;;;21.33;;
45254;SDS011;30989;52.078;21.014;2023-06-22T04:52:03;32.10;;;21.38;;
45254;SDS011;30989;52.078;21.014;2023-06-22T04:54:31;35.67;;;21.48;;
45254;SDS011;30989;52.078;21.014;2023-06-22T04:57:02;31.10;;;21.15;;
45254;SDS011;30989;52.078;21.014;2023-06-22T04:59:29;36.55;;;22.67;;
45254;SDS011;30989;52.078;21.014;2023-06-22T05:04:22;30.45;;;20.95;;
45254;SDS011;30989;52.078;21.014;2023-06-22T05:06:49;29.67;;;19.35;;
45254;SDS011;30989;52.078;21.014;2023-06-22T05:09:15;29.15;;;19.85;;
45254;SDS011;30989;52.078;21.014;2023-06-22T05:11:41;35.58;;;21.20;;
45254;SDS011;30989;52.078;21.014;2023-06-22T05:14:06;34.17;;;20.80;;
45254;SDS011;30989;52.078;21.014;2023-06-22T05:16:32;31.08;;;21.23;;
45254;SDS011;30989;52.078;21.014;2023-06-22T05:18:58;34.45;;;21.48;;
45254;SDS011;30989;52.078;21.014;2023-06-22T05:21:24;29.73;;;20.40;;
45254;SDS011;30989;52.078;21.014;2023-06-22T05:23:51;30.73;;;20.85;;
45254;SDS011;30989;52.078;21.014;2023-06-22T05:26:18;31.55;;;20.73;;
45254;SDS011;30989;52.078;21.014;2023-06-22T05:28:44;31.88;;;20.55;;
45254;SDS011;30989;52.078;21.014;2023-06-22T05:31:12;37.92;;;20.52;;
45254;SDS011;30989;52.078;21.014;2023-06-22T05:33:38;28.35;;;19.67;;
45254;SDS011;30989;52.078;21.014;2023-06-22T05:36:04;29.00;;;20.15;;
45254;SDS011;30989;52.078;21.014;2023-06-22T05:38:30;28.52;;;18.65;;
45254;SDS011;30989;52.078;21.014;2023-06-22T05:40:56;26.95;;;17.98;;
45254;SDS011;30989;52.078;21.014;2023-06-22T05:43:21;31.85;;;18.92;;
45254;SDS011;30989;52.078;21.014;2023-06-22T05:45:47;28.98;;;18.98;;
45254;SDS011;30989;52.078;21.014;2023-06-22T05:48:12;28.48;;;18.20;;
45254;SDS011;30989;52.078;21.014;2023-06-22T05:50:38;28.95;;;20.40;;
45254;SDS011;30989;52.078;21.014;2023-06-22T05:53:03;27.17;;;17.15;;
45254;SDS011;30989;52.078;21.014;2023-06-22T05:55:29;26.95;;;18.80;;
45254;SDS011;30989;52.078;21.014;2023-06-22T05:57:54;27.45;;;17.90;;
45254;SDS011;30989;52.078;21.014;2023-06-22T06:00:20;25.67;;;17.13;;
45254;SDS011;30989;52.078;21.014;2023-06-22T06:02:47;28.90;;;18.42;;
45254;SDS011;30989;52.078;21.014;2023-06-22T06:05:14;25.45;;;16.65;;
45254;SDS011;30989;52.078;21.014;2023-06-22T06:07:40;25.55;;;16.15;;
45254;SDS011;30989;52.078;21.014;2023-06-22T06:10:06;28.00;;;17.42;;
45254;SDS011;30989;52.078;21.014;2023-06-22T06:12:32;22.30;;;15.32;;
45254;SDS011;30989;52.078;21.014;2023-06-22T06:14:58;25.80;;;16.35;;
45254;SDS011;30989;52.078;21.014;2023-06-22T06:17:23;28.58;;;16.38;;
45254;SDS011;30989;52.078;21.014;2023-06-22T06:19:49;26.70;;;17.02;;
45254;SDS011;30989;52.078;21.014;2023-06-22T06:22:14;27.15;;;16.85;;
45254;SDS011;30989;52.078;21.014;2023-06-22T06:24:40;25.75;;;15.60;;
45254;SDS011;30989;52.078;21.014;2023-06-22T06:27:05;23.02;;;16.25;;
45254;SDS011;30989;52.078;21.014;2023-06-22T06:29:34;21.95;;;14.40;;
45254;SDS011;30989;52.078;21.014;2023-06-22T06:31:59;28.42;;;16.40;;
45254;SDS011;30989;52.078;21.014;2023-06-22T06:34:25;21.60;;;14.85;;
45254;SDS011;30989;52.078;21.014;2023-06-22T06:36:50;23.23;;;15.45;;
45254;SDS011;30989;52.078;21.014;2023-06-22T06:39:16;22.58;;;14.38;;
45254;SDS011;30989;52.078;21.014;2023-06-22T06:41:41;18.40;;;12.55;;
45254;SDS011;30989;52.078;21.014;2023-06-22T06:44:14;22.70;;;14.02;;
45254;SDS011;30989;52.078;21.014;2023-06-22T06:46:39;23.48;;;13.82;;
45254;SDS011;30989;52.078;21.014;2023-06-22T06:49:05;22.52;;;14.70;;
45254;SDS011;30989;52.078;21.014;2023-06-22T06:51:30;28.23;;;15.48;;
45254;SDS011;30989;52.078;21.014;2023-06-22T06:53:56;25.05;;;14.50;;
45254;SDS011;30989;52.078;21.014;2023-06-22T06:56:21;20.60;;;13.38;;
45254;SDS011;30989;52.078;21.014;2023-06-22T06:58:49;22.90;;;12.68;;
45254;SDS011;30989;52.078;21.014;2023-06-22T07:01:15;20.60;;;13.30;;
45254;SDS011;30989;52.078;21.014;2023-06-22T07:03:41;24.65;;;14.23;;
45254;SDS011;30989;52.078;21.014;2023-06-22T07:06:06;20.98;;;12.82;;
45254;SDS011;30989;52.078;21.014;2023-06-22T07:08:31;19.10;;;12.23;;
45254;SDS011;30989;52.078;21.014;2023-06-22T07:10:57;19.85;;;14.00;;
45254;SDS011;30989;52.078;21.014;2023-06-22T07:13:23;17.73;;;11.40;;
45254;SDS011;30989;52.078;21.014;2023-06-22T07:15:48;15.43;;;11.10;;
45254;SDS011;30989;52.078;21.014;2023-06-22T07:18:14;14.45;;;10.05;;
45254;SDS011;30989;52.078;21.014;2023-06-22T07:20:39;17.88;;;12.05;;
45254;SDS011;30989;52.078;21.014;2023-06-22T07:23:06;19.65;;;10.98;;
45254;SDS011;30989;52.078;21.014;2023-06-22T07:25:31;16.17;;;10.00;;
45254;SDS011;30989;52.078;21.014;2023-06-22T07:28:01;13.20;;;8.35;;
45254;SDS011;30989;52.078;21.014;2023-06-22T07:32:54;15.65;;;8.65;;
45254;SDS011;30989;52.078;21.014;2023-06-22T07:35:20;15.93;;;8.90;;
45254;SDS011;30989;52.078;21.014;2023-06-22T07:37:46;13.80;;;9.20;;
45254;SDS011;30989;52.078;21.014;2023-06-22T07:40:12;13.30;;;6.72;;
45254;SDS011;30989;52.078;21.014;2023-06-22T07:42:37;12.23;;;8.88;;
45254;SDS011;30989;52.078;21.014;2023-06-22T07:45:03;13.63;;;8.63;;
45254;SDS011;30989;52.078;21.014;2023-06-22T07:47:30;14.25;;;7.38;;
45254;SDS011;30989;52.078;21.014;2023-06-22T07:49:57;12.23;;;7.95;;
45254;SDS011;30989;52.078;21.014;2023-06-22T07:52:26;11.15;;;7.13;;
45254;SDS011;30989;52.078;21.014;2023-06-22T07:54:51;13.98;;;7.38;;
45254;SDS011;30989;52.078;21.014;2023-06-22T07:57:17;10.93;;;6.57;;
45254;SDS011;30989;52.078;21.014;2023-06-22T07:59:43;16.85;;;7.35;;
45254;SDS011;30989;52.078;21.014;2023-06-22T08:02:08;12.20;;;6.15;;
45254;SDS011;30989;52.078;21.014;2023-06-22T08:04:34;11.52;;;7.53;;
45254;SDS011;30989;52.078;21.014;2023-06-22T08:07:01;9.85;;;5.38;;
45254;SDS011;30989;52.078;21.014;2023-06-22T08:09:30;7.65;;;5.30;;
45254;SDS011;30989;52.078;21.014;2023-06-22T08:11:57;12.68;;;4.93;;
45254;SDS011;30989;52.078;21.014;2023-06-22T08:14:23;10.80;;;4.97;;
45254;SDS011;30989;52.078;21.014;2023-06-22T08:16:50;10.50;;;4.63;;
45254;SDS011;30989;52.078;21.014;2023-06-22T08:19:15;10.95;;;6.00;;
45254;SDS011;30989;52.078;21.014;2023-06-22T08:21:42;7.88;;;4.35;;
45254;SDS011;30989;52.078;21.014;2023-06-22T08:24:07;12.10;;;4.40;;
45254;SDS011;30989;52.078;21.014;2023-06-22T08:26:33;11.77;;;4.30;;
45254;SDS011;30989;52.078;21.014;2023-06-22T08:29:04;9.25;;;4.75;;
45254;SDS011;30989;52.078;21.014;2023-06-22T08:31:30;11.02;;;4.53;;
45254;SDS011;30989;52.078;21.014;2023-06-22T08:33:59;6.68;;;3.97;;
45254;SDS011;30989;52.078;21.014;2023-06-22T08:36:25;8.82;;;4.25;;
45254;SDS011;30989;52.078;21.014;2023-06-22T08:38:54;10.18;;;4.05;;
45254;SDS011;30989;52.078;21.014;2023-06-22T08:41:22;9.02;;;4.38;;
45254;SDS011;30989;52.078;21.014;2023-06-22T08:43:48;8.65;;;4.90;;
45254;SDS011;30989;52.078;21.014;2023-06-22T08:46:13;8.73;;;4.30;;
45254;SDS011;30989;52.078;21.014;2023-06-22T08:48:39;6.20;;;3.97;;
45254;SDS011;30989;52.078;21.014;2023-06-22T08:51:04;9.57;;;4.43;;
45254;SDS011;30989;52.078;21.014;2023-06-22T08:53:30;7.15;;;3.33;;
45254;SDS011;30989;52.078;21.014;2023-06-22T08:55:55;10.52;;;3.53;;
45254;SDS011;30989;52.078;21.014;2023-06-22T08:58:21;8.50;;;3.08;;
45254;SDS011;30989;52.078;21.014;2023-06-22T09:00:46;5.38;;;2.72;;
45254;SDS011;30989;52.078;21.014;2023-06-22T09:03:12;7.28;;;3.00;;
45254;SDS011;30989;52.078;21.014;2023-06-22T09:05:38;7.18;;;3.13;;
45254;SDS011;30989;52.078;21.014;2023-06-22T09:08:04;5.63;;;2.70;;
45254;SDS011;30989;52.078;21.014;2023-06-22T09:10:30;5.32;;;2.67;;
45254;SDS011;30989;52.078;21.014;2023-06-22T09:12:56;6.88;;;2.58;;
45254;SDS011;30989;52.078;21.014;2023-06-22T09:15:22;7.68;;;2.72;;
45254;SDS011;30989;52.078;21.014;2023-06-22T09:17:48;5.97;;;3.33;;
45254;SDS011;30989;52.078;21.014;2023-06-22T09:20:14;6.70;;;3.10;;
45254;SDS011;30989;52.078;21.014;2023-06-22T09:22:40;4.18;;;2.35;;
45254;SDS011;30989;52.078;21.014;2023-06-22T09:25:06;5.97;;;3.38;;
45254;SDS011;30989;52.078;21.014;2023-06-22T09:27:32;3.97;;;2.05;;
45254;SDS011;30989;52.078;21.014;2023-06-22T09:29:58;8.88;;;2.90;;
45254;SDS011;30989;52.078;21.014;2023-06-22T09:32:24;5.15;;;3.03;;
45254;SDS011;30989;52.078;21.014;2023-06-22T09:34:50;5.53;;;2.25;;
45254;SDS011;30989;52.078;21.014;2023-06-22T09:37:16;4.60;;;2.17;;
45254;SDS011;30989;52.078;21.014;2023-06-22T09:39:41;6.95;;;2.70;;
45254;SDS011;30989;52.078;21.014;2023-06-22T09:42:07;6.22;;;2.53;;
45254;SDS011;30989;52.078;21.014;2023-06-22T09:44:33;5.15;;;2.15;;
45254;SDS011;30989;52.078;21.014;2023-06-22T09:46:58;4.50;;;1.92;;
45254;SDS011;30989;52.078;21.014;2023-06-22T09:49:24;3.65;;;1.70;;
45254;SDS011;30989;52.078;21.014;2023-06-22T09:51:49;5.63;;;1.80;;
45254;SDS011;30989;52.078;21.014;2023-06-22T09:54:16;3.90;;;1.92;;
45254;SDS011;30989;52.078;21.014;2023-06-22T09:56:41;3.08;;;1.98;;
45254;SDS011;30989;52.078;21.014;2023-06-22T09:59:07;5.38;;;2.40;;
45254;SDS011;30989;52.078;21.014;2023-06-22T10:01:32;4.97;;;1.95;;
45254;SDS011;30989;52.078;21.014;2023-06-22T10:03:57;3.55;;;1.80;;
45254;SDS011;30989;52.078;21.014;2023-06-22T10:06:23;5.38;;;2.17;;
45254;SDS011;30989;52.078;21.014;2023-06-22T10:08:50;4.43;;;2.30;;
45254;SDS011;30989;52.078;21.014;2023-06-22T10:11:16;3.05;;;1.80;;
45254;SDS011;30989;52.078;21.014;2023-06-22T10:13:41;5.30;;;2.35;;
45254;SDS011;30989;52.078;21.014;2023-06-22T10:16:07;3.00;;;2.00;;
45254;SDS011;30989;52.078;21.014;2023-06-22T10:18:32;4.30;;;2.30;;
45254;SDS011;30989;52.078;21.014;2023-06-22T10:20:58;5.15;;;2.22;;
45254;SDS011;30989;52.078;21.014;2023-06-22T10:23:23;3.67;;;2.20;;
45254;SDS011;30989;52.078;21.014;2023-06-22T10:25:49;3.58;;;2.15;;
45254;SDS011;30989;52.078;21.014;2023-06-22T10:28:14;3.53;;;2.03;;
45254;SDS011;30989;52.078;21.014;2023-06-22T10:30:40;4.57;;;2.28;;
45254;SDS011;30989;52.078;21.014;2023-06-22T10:33:07;4.18;;;2.30;;
45254;SDS011;30989;52.078;21.014;2023-06-22T10:35:33;5.90;;;2.20;;
45254;SDS011;30989;52.078;21.014;2023-06-22T10:37:58;3.28;;;2.13;;
45254;SDS011;30989;52.078;21.014;2023-06-22T10:40:24;6.07;;;2.70;;
45254;SDS011;30989;52.078;21.014;2023-06-22T10:42:50;5.57;;;2.30;;
45254;SDS011;30989;52.078;21.014;2023-06-22T10:45:16;3.92;;;2.17;;
45254;SDS011;30989;52.078;21.014;2023-06-22T10:47:41;4.30;;;2.20;;
45254;SDS011;30989;52.078;21.014;2023-06-22T10:50:10;7.13;;;2.72;;
45254;SDS011;30989;52.078;21.014;2023-06-22T10:52:35;5.93;;;2.85;;
45254;SDS011;30989;52.078;21.014;2023-06-22T10:55:01;4.85;;;2.72;;
45254;SDS011;30989;52.078;21.014;2023-06-22T10:57:26;5.35;;;2.85;;
45254;SDS011;30989;52.078;21.014;2023-06-22T10:59:52;9.27;;;3.00;;
45254;SDS011;30989;52.078;21.014;2023-06-22T11:02:17;5.25;;;2.60;;
45254;SDS011;30989;52.078;21.014;2023-06-22T11:04:43;5.20;;;2.60;;
45254;SDS011;30989;52.078;21.014;2023-06-22T11:07:09;4.40;;;1.90;;
45254;SDS011;30989;52.078;21.014;2023-06-22T11:09:34;4.72;;;2.50;;
45254;SDS011;30989;52.078;21.014;2023-06-22T11:12:00;5.22;;;2.70;;
45254;SDS011;30989;52.078;21.014;2023-06-22T11:14:25;6.13;;;3.40;;
45254;SDS011;30989;52.078;21.014;2023-06-22T11:16:51;5.72;;;3.00;;
45254;SDS011;30989;52.078;21.014;2023-06-22T11:19:16;6.20;;;2.72;;
45254;SDS011;30989;52.078;21.014;2023-06-22T11:21:42;7.03;;;2.83;;
45254;SDS011;30989;52.078;21.014;2023-06-22T11:24:08;5.30;;;2.38;;
45254;SDS011;30989;52.078;21.014;2023-06-22T11:26:33;7.18;;;3.47;;
45254;SDS011;30989;52.078;21.014;2023-06-22T11:28:59;5.60;;;2.63;;
45254;SDS011;30989;52.078;21.014;2023-06-22T11:31:24;7.57;;;2.97;;
45254;SDS011;30989;52.078;21.014;2023-06-22T11:33:50;6.53;;;2.75;;
45254;SDS011;30989;52.078;21.014;2023-06-22T11:36:16;4.57;;;2.60;;
45254;SDS011;30989;52.078;21.014;2023-06-22T11:38:42;7.07;;;3.40;;
45254;SDS011;30989;52.078;21.014;2023-06-22T11:41:08;9.43;;;2.80;;
45254;SDS011;30989;52.078;21.014;2023-06-22T11:43:35;3.92;;;2.60;;
45254;SDS011;30989;52.078;21.014;2023-06-22T11:46:04;7.38;;;3.30;;
45254;SDS011;30989;52.078;21.014;2023-06-22T11:48:30;5.65;;;2.90;;
45254;SDS011;30989;52.078;21.014;2023-06-22T11:50:56;4.10;;;2.25;;
45254;SDS011;30989;52.078;21.014;2023-06-22T11:53:23;4.15;;;2.53;;
45254;SDS011;30989;52.078;21.014;2023-06-22T11:55:51;8.43;;;2.63;;
45254;SDS011;30989;52.078;21.014;2023-06-22T11:58:17;4.90;;;2.53;;
45254;SDS011;30989;52.078;21.014;2023-06-22T12:00:43;7.57;;;2.90;;
45254;SDS011;30989;52.078;21.014;2023-06-22T12:03:10;6.90;;;2.85;;
45254;SDS011;30989;52.078;21.014;2023-06-22T12:05:36;23.95;;;3.72;;
45254;SDS011;30989;52.078;21.014;2023-06-22T12:08:02;6.40;;;2.33;;
45254;SDS011;30989;52.078;21.014;2023-06-22T12:10:27;9.10;;;3.53;;
45254;SDS011;30989;52.078;21.014;2023-06-22T12:12:53;6.50;;;2.72;;
45254;SDS011;30989;52.078;21.014;2023-06-22T12:15:19;2.95;;;2.00;;
45254;SDS011;30989;52.078;21.014;2023-06-22T12:17:45;5.70;;;2.65;;
45254;SDS011;30989;52.078;21.014;2023-06-22T12:20:10;6.63;;;2.28;;
45254;SDS011;30989;52.078;21.014;2023-06-22T12:22:36;3.55;;;2.25;;
45254;SDS011;30989;52.078;21.014;2023-06-22T12:25:03;6.30;;;2.50;;
45254;SDS011;30989;52.078;21.014;2023-06-22T12:27:29;4.20;;;2.70;;
45254;SDS011;30989;52.078;21.014;2023-06-22T12:29:55;4.45;;;2.63;;
45254;SDS011;30989;52.078;21.014;2023-06-22T12:32:21;3.13;;;1.92;;
45254;SDS011;30989;52.078;21.014;2023-06-22T12:34:46;5.32;;;2.55;;
45254;SDS011;30989;52.078;21.014;2023-06-22T12:37:12;5.25;;;2.63;;
45254;SDS011;30989;52.078;21.014;2023-06-22T12:39:39;4.70;;;2.42;;
45254;SDS011;30989;52.078;21.014;2023-06-22T12:42:06;4.82;;;2.45;;
45254;SDS011;30989;52.078;21.014;2023-06-22T12:44:33;4.47;;;2.45;;
45254;SDS011;30989;52.078;21.014;2023-06-22T12:47:02;6.00;;;2.85;;
45254;SDS011;30989;52.078;21.014;2023-06-22T12:49:28;4.70;;;2.78;;
45254;SDS011;30989;52.078;21.014;2023-06-22T12:51:53;6.82;;;2.72;;
45254;SDS011;30989;52.078;21.014;2023-06-22T12:54:18;4.55;;;2.28;;
45254;SDS011;30989;52.078;21.014;2023-06-22T12:56:44;5.43;;;2.22;;
45254;SDS011;30989;52.078;21.014;2023-06-22T12:59:10;4.75;;;2.92;;
45254;SDS011;30989;52.078;21.014;2023-06-22T13:01:35;6.43;;;2.50;;
45254;SDS011;30989;52.078;21.014;2023-06-22T13:04:02;3.38;;;2.20;;
45254;SDS011;30989;52.078;21.014;2023-06-22T13:06:28;3.85;;;2.38;;
45254;SDS011;30989;52.078;21.014;2023-06-22T13:08:53;3.88;;;2.60;;
45254;SDS011;30989;52.078;21.014;2023-06-22T13:11:18;5.00;;;2.28;;
45254;SDS011;30989;52.078;21.014;2023-06-22T13:13:44;4.88;;;2.38;;
45254;SDS011;30989;52.078;21.014;2023-06-22T13:16:10;4.97;;;2.42;;
45254;SDS011;30989;52.078;21.014;2023-06-22T13:18:36;5.55;;;2.30;;
45254;SDS011;30989;52.078;21.014;2023-06-22T13:21:02;3.53;;;2.15;;
45254;SDS011;30989;52.078;21.014;2023-06-22T13:23:28;3.47;;;2.28;;
45254;SDS011;30989;52.078;21.014;2023-06-22T13:25:53;5.53;;;2.85;;
45254;SDS011;30989;52.078;21.014;2023-06-22T13:28:19;6.18;;;2.33;;
45254;SDS011;30989;52.078;21.014;2023-06-22T13:30:46;5.68;;;2.40;;
45254;SDS011;30989;52.078;21.014;2023-06-22T13:33:12;6.53;;;2.83;;
45254;SDS011;30989;52.078;21.014;2023-06-22T13:35:38;6.88;;;2.90;;
45254;SDS011;30989;52.078;21.014;2023-06-22T13:38:04;4.88;;;2.35;;
45254;SDS011;30989;52.078;21.014;2023-06-22T13:40:30;4.90;;;2.22;;
45254;SDS011;30989;52.078;21.014;2023-06-22T13:42:56;3.30;;;2.03;;
45254;SDS011;30989;52.078;21.014;2023-06-22T13:45:22;4.80;;;2.30;;
45254;SDS011;30989;52.078;21.014;2023-06-22T13:47:47;3.63;;;2.05;;
45254;SDS011;30989;52.078;21.014;2023-06-22T13:50:13;4.65;;;2.45;;
45254;SDS011;30989;52.078;21.014;2023-06-22T13:52:38;4.57;;;2.03;;
45254;SDS011;30989;52.078;21.014;2023-06-22T13:55:05;5.45;;;2.45;;
45254;SDS011;30989;52.078;21.014;2023-06-22T13:57:32;6.18;;;2.40;;
45254;SDS011;30989;52.078;21.014;2023-06-22T13:59:58;4.78;;;2.13;;
45254;SDS011;30989;52.078;21.014;2023-06-22T14:02:23;4.05;;;1.73;;
45254;SDS011;30989;52.078;21.014;2023-06-22T14:04:48;8.32;;;2.67;;
45254;SDS011;30989;52.078;21.014;2023-06-22T14:07:14;3.78;;;2.38;;
45254;SDS011;30989;52.078;21.014;2023-06-22T14:09:39;5.97;;;1.80;;
45254;SDS011;30989;52.078;21.014;2023-06-22T14:12:08;4.20;;;2.40;;
45254;SDS011;30989;52.078;21.014;2023-06-22T14:14:34;3.83;;;2.17;;
45254;SDS011;30989;52.078;21.014;2023-06-22T14:16:59;6.05;;;2.33;;
45254;SDS011;30989;52.078;21.014;2023-06-22T14:19:25;4.78;;;2.08;;
45254;SDS011;30989;52.078;21.014;2023-06-22T14:21:50;2.65;;;1.73;;
45254;SDS011;30989;52.078;21.014;2023-06-22T14:24:16;3.92;;;2.30;;
45254;SDS011;30989;52.078;21.014;2023-06-22T14:26:41;4.97;;;2.22;;
45254;SDS011;30989;52.078;21.014;2023-06-22T14:29:06;5.43;;;2.08;;